Airfield :
LOGIN :

Register | Disclaimer

   EN    FR    IT 

 










Legend :    VFR   Marginal VFR   IFR   Intensive IFR   Very Intensive IFR
Visi :
Ceiling :
>= 8 km
>= 3000ft
5 to 8 km
1000 to 3000 ft
1500m to 5 km
500 to 1000 ft
800 to 1500m
200 to 500 ft
< 800m
< 200 ft
Symbols :   Thunderstorms  Fog  Heavy snow  Heavy precipitations  Wind > 20 kt
SIGMETs :     Misc.  Thunderstorms  Icing  Turbulence  Mountain Waves  Volcanic Ashes







- Airport Elevation : 1649 ft
- IATA code : HHN


EDFH - Frankfurt-Hahn Rhineland-Palatinate

CURRENT METAR :
  • 222120Z VRB02KT CAVOK 13/12 Q1015

EXPIRED METARs :
  • 222050Z 10005KT CAVOK 13/12 Q1015
  • 222020Z 09006KT CAVOK 13/12 Q1015
  • 221950Z 10006KT CAVOK 13/12 Q1015
  • 221920Z VRB02KT 9999 FEW005 SCT090CB 13/12 Q1014
  • 221850Z 11006KT 070V160 9999 FEW010 SCT095CB 13/13 Q1014

TAF TAF EDFH
Valid from the 22 at 18:00 until the 23 at 18:00 UTC


221700Z 2218/2318 02005KT CAVOK
PROB40
TEMPO 2218/2302 TSRA SCT040CB
PROB40
TEMPO 2300/2306 1200 BCFG
BECMG 2309/2312 06010KT
PROB30
TEMPO 2312/2318 07015G25KT TSRA BKN025CB
No reported NOTAMs for that airfield.



MET'MAP, your aeronautical weather chart ! - Copyright ORBIFLY December 2007 - Disclaimer

ORBIFLY MET'MAP TEAM :

Programming & Development : Alexandra Zaïnal
Concept & Development : Baudouin d'Aumeries
Co-Development & Prog : Marc-Olivier Méhu
Technical & hardware support : Manuel Goepfert

Contact : metmap@orbifly.com




SOURCES & CREDITS :

   NOAA